Time;durP1;ratioP1;P1;durP2;ratioP2;P2;SDS_P1;SDS_P2;PMS_P1;PMS_P2;Temp;Humidity;BMP_temperature;BMP_pressure;BME280_temperature;BME280_humidity;BME280_pressure;Samples;Min_cycle;Max_cycle;Signal;HPM_P1;HPM_P2
2022/12/26 00:01:34;;;;;;;8.47;4.80;;;11.00;99.90;;;;;;5031506;28;20504;-68
2022/12/26 00:04:00;;;;;;;4.70;4.30;;;11.00;99.90;;;;;;5031396;28;20458;-68
2022/12/26 00:06:30;;;;;;;4.90;4.40;;;11.00;99.90;;;;;;5031553;28;20461;-68
2022/12/26 00:08:58;;;;;;;5.20;4.67;;;10.90;99.90;;;;;;5031518;28;20464;-68
2022/12/26 00:11:26;;;;;;;5.77;4.60;;;10.90;99.90;;;;;;5031840;28;20453;-68
2022/12/26 00:13:56;;;;;;;9.80;5.23;;;10.80;99.90;;;;;;5031450;28;20960;-68
2022/12/26 00:16:23;;;;;;;6.97;4.53;;;10.90;99.90;;;;;;5030973;28;20512;-68
2022/12/26 00:18:50;;;;;;;4.67;4.27;;;10.80;99.90;;;;;;5031298;28;20453;-68
2022/12/26 00:21:18;;;;;;;6.03;4.53;;;10.80;99.90;;;;;;5031724;28;20457;-68
2022/12/26 00:23:47;;;;;;;11.40;5.07;;;10.80;99.90;;;;;;5031568;28;20478;-68
2022/12/26 00:26:15;;;;;;;4.97;4.47;;;10.80;99.90;;;;;;5031133;28;20516;-68
2022/12/26 00:28:43;;;;;;;5.07;4.57;;;10.90;99.90;;;;;;5030966;28;20469;-69
2022/12/26 00:31:11;;;;;;;9.10;4.27;;;10.90;99.90;;;;;;5031251;28;20458;-69
2022/12/26 00:33:38;;;;;;;4.10;3.80;;;11.00;99.90;;;;;;5031654;28;20438;-69
2022/12/26 00:36:07;;;;;;;5.60;4.77;;;11.00;99.90;;;;;;5031235;28;20490;-69
2022/12/26 00:38:34;;;;;;;6.80;4.50;;;10.90;99.90;;;;;;5031303;28;20446;-69
2022/12/26 00:41:03;;;;;;;5.13;4.63;;;10.80;99.90;;;;;;5031115;28;20454;-69
2022/12/26 00:43:29;;;;;;;6.33;4.70;;;10.80;99.90;;;;;;5031162;28;20926;-68
2022/12/26 00:45:56;;;;;;;7.43;5.03;;;10.80;99.90;;;;;;5031053;28;20478;-69
2022/12/26 00:48:23;;;;;;;4.97;4.47;;;10.70;99.90;;;;;;5031297;28;20504;-68
2022/12/26 00:50:50;;;;;;;7.20;4.33;;;10.70;99.90;;;;;;5031046;28;20458;-69
2022/12/26 00:53:17;;;;;;;5.07;4.57;;;10.70;99.90;;;;;;5031367;28;20495;-69
2022/12/26 00:55:44;;;;;;;5.60;4.93;;;10.60;99.90;;;;;;5030883;28;20465;-69
2022/12/26 00:58:12;;;;;;;6.03;5.20;;;10.60;99.90;;;;;;5033581;28;20956;-69
2022/12/26 01:00:38;;;;;;;4.47;4.07;;;10.60;99.90;;;;;;5035006;28;20453;-69
2022/12/26 01:03:07;;;;;;;7.33;3.77;;;10.60;99.90;;;;;;5031551;28;20548;-75
2022/12/26 01:05:35;;;;;;;7.00;4.68;;;10.60;99.90;;;;;;5033989;28;20514;-69
2022/12/26 01:08:02;;;;;;;8.90;4.90;;;10.70;99.90;;;;;;5035188;28;20199;-69
2022/12/26 01:10:28;;;;;;;6.00;5.40;;;10.70;99.90;;;;;;5034820;28;20507;-69
2022/12/26 01:12:55;;;;;;;6.43;5.40;;;10.60;99.90;;;;;;5034914;28;20454;-69
2022/12/26 01:15:23;;;;;;;7.57;6.20;;;10.50;99.90;;;;;;5034971;28;20470;-69
2022/12/26 01:17:50;;;;;;;7.93;5.47;;;10.40;99.90;;;;;;5034275;28;20498;-69
2022/12/26 01:20:16;;;;;;;13.00;6.30;;;10.20;99.90;;;;;;5034348;28;20457;-69
2022/12/26 01:22:43;;;;;;;15.90;8.50;;;10.10;99.90;;;;;;5034096;28;20945;-69
2022/12/26 01:25:11;;;;;;;6.90;6.03;;;9.90;99.90;;;;;;5034863;28;20477;-70
2022/12/26 01:27:38;;;;;;;6.30;5.60;;;9.80;99.90;;;;;;5034670;28;20453;-69
2022/12/26 01:30:06;;;;;;;12.50;6.73;;;9.70;99.90;;;;;;5034549;28;20461;-69
2022/12/26 01:32:34;;;;;;;8.87;6.17;;;9.60;99.90;;;;;;5034581;28;20496;-69
2022/12/26 01:35:00;;;;;;;11.80;6.93;;;9.50;99.90;;;;;;5034249;28;20473;-69
2022/12/26 01:37:27;;;;;;;10.40;6.60;;;9.50;99.90;;;;;;5033809;28;20492;-69
2022/12/26 01:39:54;;;;;;;9.23;6.07;;;9.50;99.90;;;;;;5033991;28;20473;-69
2022/12/26 01:42:22;;;;;;;15.00;6.50;;;9.40;99.90;;;;;;5034451;28;20453;-68
2022/12/26 01:44:58;;;;;;;8.07;5.33;;;9.40;99.90;;;;;;5034488;28;20519;-69
2022/12/26 01:47:30;;;;;;;11.60;6.20;;;9.40;99.90;;;;;;5034137;28;20452;-69
2022/12/26 01:49:58;;;;;;;13.03;6.57;;;9.40;99.90;;;;;;5033960;28;20461;-68
2022/12/26 01:52:30;;;;;;;9.73;6.00;;;9.30;99.90;;;;;;5034112;28;20935;-69
2022/12/26 01:54:57;;;;;;;14.37;6.80;;;9.30;99.90;;;;;;5034302;28;20531;-68
2022/12/26 01:57:27;;;;;;;11.87;6.00;;;9.30;99.90;;;;;;5033775;28;20543;-69
2022/12/26 01:59:57;;;;;;;8.30;6.00;;;9.30;99.90;;;;;;5034183;28;20461;-68
2022/12/26 02:02:26;;;;;;;8.80;6.60;;;9.20;99.90;;;;;;5033454;28;20458;-68
2022/12/26 02:07:44;;;;;;;9.30;5.90;;;9.20;99.90;;;;;;5028737;28;20434;-69
2022/12/26 02:10:15;;;;;;;9.83;6.63;;;9.20;99.90;;;;;;5033289;28;20462;-68
2022/12/26 02:12:41;;;;;;;7.87;5.73;;;9.10;99.90;;;;;;5033750;28;20453;-68
2022/12/26 02:15:11;;;;;;;7.37;5.90;;;9.20;99.90;;;;;;5033637;28;20535;-68
2022/12/26 02:17:39;;;;;;;16.10;6.37;;;9.30;99.90;;;;;;5032783;28;20494;-68
2022/12/26 02:20:16;;;;;;;10.27;5.97;;;9.30;99.90;;;;;;5033751;28;20477;-68
2022/12/26 02:23:13;;;;;;;13.20;6.13;;;9.40;99.90;;;;;;5033386;28;20533;-69
2022/12/26 02:26:00;;;;;;;9.17;6.13;;;9.50;99.90;;;;;;5033866;28;20465;-69
2022/12/26 02:28:49;;;;;;;16.67;6.17;;;9.50;99.90;;;;;;5032510;28;20449;-68
2022/12/26 02:31:24;;;;;;;8.17;5.40;;;9.60;99.90;;;;;;5031824;28;20465;-69
2022/12/26 02:34:02;;;;;;;7.10;4.77;;;9.60;99.90;;;;;;5031223;28;20449;-68
2022/12/26 02:36:46;;;;;;;11.93;5.70;;;9.70;99.90;;;;;;5030997;28;20469;-69
2022/12/26 02:39:39;;;;;;;6.80;5.53;;;9.70;99.90;;;;;;5032255;28;20445;-69
2022/12/26 02:42:12;;;;;;;5.83;5.23;;;9.80;99.90;;;;;;5031663;28;20445;-68
2022/12/26 02:47:37;;;;;;;10.10;5.87;;;9.90;99.90;;;;;;5030607;28;20539;-68
2022/12/26 03:13:11;;;;;;;5.80;4.67;;;10.40;99.90;;;;;;5031513;28;20802;-68
2022/12/26 03:18:24;;;;;;;11.53;4.50;;;10.60;99.90;;;;;;5031572;28;20492;-68
2022/12/26 03:20:53;;;;;;;7.83;4.87;;;10.70;99.90;;;;;;5031698;28;20485;-68
2022/12/26 03:23:21;;;;;;;5.20;4.70;;;10.80;99.90;;;;;;5032508;28;20457;-68
2022/12/26 03:28:37;;;;;;;5.93;4.47;;;10.80;99.90;;;;;;5031957;28;20449;-68
2022/12/26 03:31:06;;;;;;;5.93;4.20;;;10.80;99.90;;;;;;5032148;28;20457;-69
2022/12/26 03:36:35;;;;;;;8.50;4.33;;;10.80;99.90;;;;;;5032282;28;20453;-68
2022/12/26 03:39:10;;;;;;;9.87;4.47;;;10.80;99.90;;;;;;5031655;28;20546;-69
2022/12/26 04:44:11;;;;;;;4.17;3.87;;;10.10;99.90;;;;;;5031308;28;20437;-69
2022/12/26 04:46:41;;;;;;;5.70;3.80;;;10.00;99.90;;;;;;5031328;28;20525;-69
2022/12/26 04:51:55;;;;;;;6.70;4.60;;;9.90;99.90;;;;;;5030770;28;20440;-69
2022/12/26 04:54:22;;;;;;;10.60;3.67;;;9.80;99.90;;;;;;5031509;28;20537;-69
2022/12/26 04:56:49;;;;;;;4.73;3.70;;;9.70;99.90;;;;;;5030954;28;20511;-69
2022/12/26 04:59:17;;;;;;;6.43;3.90;;;9.60;99.90;;;;;;5031016;28;20453;-69
2022/12/26 05:10:01;;;;;;;8.87;4.20;;;9.60;99.90;;;;;;5031271;28;20437;-69
2022/12/26 05:12:27;;;;;;;12.43;5.83;;;9.60;99.90;;;;;;5031109;28;20445;-69
2022/12/26 05:14:55;;;;;;;8.33;4.20;;;9.60;99.90;;;;;;5030681;28;20476;-68
2022/12/26 05:28:42;;;;;;;7.67;4.40;;;9.40;99.90;;;;;;5030566;28;20484;-69
2022/12/26 05:31:12;;;;;;;8.83;4.13;;;9.40;99.90;;;;;;5031033;28;20450;-69
2022/12/26 05:36:27;;;;;;;12.10;5.07;;;9.30;99.90;;;;;;5030674;28;20969;-69
2022/12/26 05:38:54;;;;;;;18.50;6.50;;;9.30;99.90;;;;;;5027623;28;20543;-69
2022/12/26 05:41:21;;;;;;;13.37;6.73;;;9.10;99.90;;;;;;5030606;28;21011;-69
2022/12/26 05:43:48;;;;;;;17.53;7.30;;;9.10;99.90;;;;;;5031050;28;20508;-69
2022/12/26 05:46:16;;;;;;;17.70;6.97;;;9.00;99.90;;;;;;5034240;28;20470;-69
2022/12/26 05:48:43;;;;;;;16.43;6.80;;;9.00;99.90;;;;;;5034311;28;20496;-69
2022/12/26 05:51:09;;;;;;;10.60;6.20;;;8.80;99.90;;;;;;5034079;28;21007;-69
2022/12/26 05:53:36;;;;;;;14.70;6.03;;;8.80;99.90;;;;;;5034339;28;20454;-69
2022/12/26 05:56:04;;;;;;;10.33;4.20;;;8.90;99.90;;;;;;5033686;28;20523;-69
2022/12/26 05:58:31;;;;;;;7.37;5.10;;;9.00;99.90;;;;;;5033721;28;20599;-69
2022/12/26 06:01:09;;;;;;;6.33;4.30;;;9.00;99.90;;;;;;5034251;28;20450;-69
2022/12/26 06:03:38;;;;;;;8.60;4.57;;;9.00;99.90;;;;;;5033854;28;20457;-69
2022/12/26 06:06:05;;;;;;;9.30;4.60;;;9.10;99.90;;;;;;5034001;28;20536;-69
2022/12/26 06:08:33;;;;;;;8.50;4.03;;;9.20;99.90;;;;;;5033310;28;20445;-70
2022/12/26 06:11:03;;;;;;;7.37;4.50;;;9.30;99.90;;;;;;5033912;28;20872;-69
2022/12/26 06:13:30;;;;;;;11.90;3.73;;;9.40;99.90;;;;;;5033606;28;20989;-69
2022/12/26 06:15:57;;;;;;;6.27;4.80;;;9.50;99.90;;;;;;5033703;28;20985;-69
2022/12/26 06:18:24;;;;;;;6.30;4.00;;;9.60;99.90;;;;;;5032912;28;20527;-70
2022/12/26 06:20:52;;;;;;;8.73;4.30;;;9.70;99.90;;;;;;5033652;28;20508;-69
2022/12/26 06:23:18;;;;;;;6.57;4.30;;;9.80;99.90;;;;;;5033479;28;20453;-69
2022/12/26 06:25:52;;;;;;;6.50;3.67;;;9.90;99.90;;;;;;5033136;28;20523;-69
2022/12/26 06:28:19;;;;;;;9.13;4.00;;;10.10;99.90;;;;;;5033256;28;20464;-69
2022/12/26 06:30:45;;;;;;;5.10;3.90;;;10.20;99.90;;;;;;5033669;28;20450;-69
2022/12/26 06:33:12;;;;;;;6.23;3.57;;;10.30;99.90;;;;;;5032778;28;20454;-69
2022/12/26 06:35:39;;;;;;;5.60;3.97;;;10.40;99.90;;;;;;5033661;28;20469;-69
2022/12/26 06:38:07;;;;;;;8.93;3.60;;;10.40;99.90;;;;;;5032863;28;20493;-69
2022/12/26 06:40:33;;;;;;;6.27;3.93;;;10.40;99.90;;;;;;5033518;28;20454;-70
2022/12/26 06:43:00;;;;;;;7.13;3.97;;;10.40;99.90;;;;;;5033216;28;20508;-70
2022/12/26 06:45:27;;;;;;;7.37;3.97;;;10.40;99.90;;;;;;5032961;28;20474;-69
2022/12/26 06:47:53;;;;;;;11.80;4.00;;;10.40;99.90;;;;;;5031529;28;20450;-69
2022/12/26 06:50:22;;;;;;;4.43;3.60;;;10.50;99.90;;;;;;5032848;28;20450;-69
2022/12/26 06:52:48;;;;;;;8.20;3.50;;;10.60;99.90;;;;;;5032988;28;20541;-69
2022/12/26 06:55:16;;;;;;;6.90;3.83;;;10.60;99.90;;;;;;5032794;28;20527;-69
2022/12/26 06:57:43;;;;;;;6.37;4.17;;;10.80;99.90;;;;;;5032683;28;20495;-69
2022/12/26 07:00:11;;;;;;;4.03;3.73;;;10.70;99.90;;;;;;5032698;28;20507;-69
2022/12/26 07:02:38;;;;;;;5.30;3.90;;;10.70;99.90;;;;;;5033210;28;20454;-69
2022/12/26 07:05:06;;;;;;;13.13;4.90;;;10.70;99.90;;;;;;5032900;28;20470;-70
2022/12/26 07:07:32;;;;;;;6.57;3.93;;;10.70;99.90;;;;;;5032646;28;20473;-69
2022/12/26 07:09:59;;;;;;;6.40;3.70;;;10.60;99.90;;;;;;5032648;28;20453;-70
2022/12/26 07:12:27;;;;;;;10.20;4.43;;;10.60;99.90;;;;;;5032853;28;20454;-70
2022/12/26 07:14:54;;;;;;;5.60;3.97;;;10.60;99.90;;;;;;5032195;28;20562;-71
2022/12/26 07:17:20;;;;;;;6.10;4.70;;;10.60;99.90;;;;;;5031941;28;20446;-71
2022/12/26 07:19:47;;;;;;;5.40;4.37;;;10.60;99.90;;;;;;5032317;28;20480;-70
2022/12/26 07:22:14;;;;;;;7.73;4.50;;;10.50;99.90;;;;;;5032582;28;20500;-71
2022/12/26 07:24:40;;;;;;;10.30;5.17;;;10.40;99.90;;;;;;5032150;28;20504;-71
2022/12/26 07:27:07;;;;;;;5.67;4.47;;;10.40;99.90;;;;;;5032269;28;20449;-71
2022/12/26 07:29:35;;;;;;;8.30;4.63;;;10.40;99.90;;;;;;5031991;28;20461;-71
2022/12/26 07:32:02;;;;;;;8.20;4.03;;;10.30;99.90;;;;;;5032514;28;20462;-70
2022/12/26 07:34:29;;;;;;;6.40;4.10;;;10.30;99.90;;;;;;5032133;28;20499;-70
2022/12/26 07:36:56;;;;;;;8.20;4.67;;;10.30;99.90;;;;;;5031899;28;20465;-68
2022/12/26 07:39:23;;;;;;;8.63;4.60;;;10.30;99.90;;;;;;5031039;28;20488;-67
2022/12/26 07:41:59;;;;;;;8.23;4.77;;;10.20;99.90;;;;;;5031356;28;20544;-68
2022/12/26 07:44:26;;;;;;;5.33;4.73;;;10.20;99.90;;;;;;5031639;28;20456;-67
2022/12/26 07:46:55;;;;;;;7.67;4.70;;;10.20;99.90;;;;;;5031222;28;20450;-67
2022/12/26 07:49:22;;;;;;;7.70;4.37;;;10.20;99.90;;;;;;5030900;28;20941;-68
2022/12/26 07:51:49;;;;;;;7.80;4.00;;;10.20;99.90;;;;;;5031079;28;20499;-67
2022/12/26 07:54:16;;;;;;;8.13;4.60;;;10.10;99.90;;;;;;5031537;28;20477;-69
2022/12/26 07:56:43;;;;;;;6.83;4.77;;;10.10;99.90;;;;;;5030962;28;20481;-68
2022/12/26 07:59:13;;;;;;;8.83;4.10;;;10.10;99.90;;;;;;5028379;28;21036;-72
2022/12/26 08:01:40;;;;;;;6.83;4.73;;;10.10;99.90;;;;;;5026783;28;20458;-80
2022/12/26 08:04:08;;;;;;;6.53;4.37;;;10.20;99.90;;;;;;5027493;28;20450;-71
2022/12/26 08:06:35;;;;;;;4.57;3.53;;;10.40;99.90;;;;;;5026790;28;20469;-72
2022/12/26 08:09:02;;;;;;;3.80;2.97;;;10.40;99.90;;;;;;5027707;28;20446;-71
2022/12/26 08:11:31;;;;;;;7.97;3.30;;;10.60;99.90;;;;;;5028071;28;20499;-71
2022/12/26 08:13:58;;;;;;;3.88;2.70;;;10.70;99.90;;;;;;5027318;28;20829;-73
2022/12/26 08:16:24;;;;;;;3.90;3.50;;;10.60;99.90;;;;;;5027146;28;20230;-73
2022/12/26 08:18:51;;;;;;;2.77;2.50;;;10.50;99.90;;;;;;5027650;28;20481;-73
2022/12/26 08:21:19;;;;;;;2.50;2.30;;;10.40;99.90;;;;;;5028121;28;20504;-73
2022/12/26 08:23:47;;;;;;;2.83;2.40;;;10.30;99.90;;;;;;5028211;28;20453;-73
2022/12/26 08:26:19;;;;;;;2.73;1.90;;;10.20;99.90;;;;;;5027804;28;20703;-72
2022/12/26 08:28:46;;;;;;;2.70;2.13;;;10.20;99.90;;;;;;5027527;28;20469;-72
2022/12/26 08:31:13;;;;;;;3.83;2.37;;;10.20;99.90;;;;;;5027453;28;20450;-73
2022/12/26 08:33:40;;;;;;;2.40;2.20;;;10.10;99.90;;;;;;5026713;28;20499;-73
2022/12/26 08:36:09;;;;;;;2.60;2.00;;;10.10;99.90;;;;;;5022283;28;20470;-73
2022/12/26 08:38:37;;;;;;;2.90;2.00;;;10.00;99.90;;;;;;5024222;28;20493;-72
2022/12/26 08:41:05;;;;;;;5.43;2.03;;;10.00;99.90;;;;;;5023272;28;20458;-72
2022/12/26 08:43:32;;;;;;;2.47;2.07;;;10.00;99.90;;;;;;5024137;28;20549;-72
2022/12/26 08:46:00;;;;;;;4.87;2.10;;;9.90;99.90;;;;;;5023994;28;20489;-72
2022/12/26 08:48:27;;;;;;;6.50;1.80;;;9.90;99.90;;;;;;5023081;28;20446;-73
2022/12/26 08:50:59;;;;;;;2.57;1.90;;;9.90;99.90;;;;;;5024291;28;20454;-73
2022/12/26 08:53:27;;;;;;;4.30;1.70;;;9.90;99.90;;;;;;5024165;28;20462;-72
2022/12/26 08:55:55;;;;;;;2.73;1.83;;;9.90;99.90;;;;;;5024258;28;20489;-72
2022/12/26 08:58:22;;;;;;;1.90;1.80;;;9.90;99.90;;;;;;5022003;28;20490;-72
2022/12/26 09:00:49;;;;;;;2.23;2.03;;;9.80;99.90;;;;;;5023431;28;20535;-72
2022/12/26 09:03:16;;;;;;;1.70;1.60;;;9.80;99.90;;;;;;5024200;28;20446;-72
2022/12/26 09:05:43;;;;;;;3.00;2.37;;;9.80;99.90;;;;;;5024216;28;20474;-72
2022/12/26 09:08:09;;;;;;;2.60;1.83;;;9.80;99.90;;;;;;5023684;28;20477;-72
2022/12/26 09:10:36;;;;;;;1.87;1.60;;;9.80;99.90;;;;;;5023182;28;20457;-72
2022/12/26 09:13:04;;;;;;;3.10;1.73;;;9.70;99.90;;;;;;5023245;28;20462;-72
2022/12/26 09:15:31;;;;;;;1.90;1.70;;;9.70;99.90;;;;;;5024223;28;20544;-71
2022/12/26 09:17:58;;;;;;;3.63;2.17;;;9.70;99.90;;;;;;5021956;28;20487;-71
2022/12/26 09:20:24;;;;;;;2.07;1.87;;;9.70;99.90;;;;;;5027089;28;20457;-72
2022/12/26 09:22:51;;;;;;;3.77;2.20;;;9.70;99.90;;;;;;5027825;28;20454;-72
2022/12/26 09:25:18;;;;;;;3.67;2.53;;;9.60;99.90;;;;;;5027663;28;20477;-72
2022/12/26 09:27:45;;;;;;;2.40;2.20;;;9.60;99.90;;;;;;5026440;28;20464;-72
2022/12/26 09:30:14;;;;;;;3.80;2.50;;;9.70;99.90;;;;;;5027007;28;20477;-72
2022/12/26 09:32:41;;;;;;;7.43;2.60;;;9.70;99.90;;;;;;5027435;28;20446;-72
2022/12/26 09:35:08;;;;;;;4.07;2.50;;;9.70;99.90;;;;;;5027374;28;20496;-71
2022/12/26 09:37:35;;;;;;;3.57;2.07;;;9.70;99.90;;;;;;5027093;28;21044;-71
2022/12/26 09:40:03;;;;;;;4.07;2.60;;;9.70;99.90;;;;;;5027550;28;20527;-71
2022/12/26 09:42:37;;;;;;;3.10;2.07;;;9.80;99.90;;;;;;5026735;28;21214;-71
2022/12/26 09:45:11;;;;;;;2.40;2.20;;;9.80;99.90;;;;;;5026259;28;20507;-71
2022/12/26 09:47:46;;;;;;;3.17;1.83;;;9.90;99.90;;;;;;5026802;28;20507;-72
2022/12/26 09:50:19;;;;;;;2.10;2.00;;;9.90;99.90;;;;;;5027829;28;20445;-72
2022/12/26 09:52:49;;;;;;;3.33;2.27;;;10.00;99.90;;;;;;5027320;28;20453;-72
2022/12/26 09:55:34;;;;;;;5.75;2.40;;;10.20;99.90;;;;;;5027003;28;20453;-73
2022/12/26 09:58:06;;;;;;;7.73;3.00;;;10.60;99.90;;;;;;5026707;28;20214;-73
2022/12/26 10:00:43;;;;;;;2.43;2.23;;;10.80;99.90;;;;;;5027487;28;20500;-73
2022/12/26 10:03:12;;;;;;;2.80;1.97;;;10.80;99.90;;;;;;5027054;28;20503;-73
2022/12/26 10:05:46;;;;;;;2.00;1.80;;;10.90;99.90;;;;;;5027253;28;20531;-73
2022/12/26 10:08:23;;;;;;;2.47;1.70;;;10.90;99.90;;;;;;5026398;28;20446;-73
2022/12/26 10:10:58;;;;;;;7.70;2.40;;;10.90;99.90;;;;;;5026655;28;20453;-73
2022/12/26 10:13:43;;;;;;;5.57;2.47;;;10.90;99.90;;;;;;5027220;28;20460;-73
2022/12/26 10:16:15;;;;;;;1.93;1.83;;;11.00;99.90;;;;;;5026878;28;20520;-73
2022/12/26 10:18:56;;;;;;;2.00;1.87;;;11.00;99.90;;;;;;5024494;28;20474;-73
2022/12/26 10:21:40;;;;;;;4.03;2.30;;;11.00;99.90;;;;;;5025464;28;21217;-73
2022/12/26 10:24:15;;;;;;;2.10;2.00;;;11.00;99.90;;;;;;5027234;28;20484;-73
2022/12/26 10:26:46;;;;;;;3.30;2.20;;;11.10;99.90;;;;;;5027391;28;20591;-73
2022/12/26 10:29:20;;;;;;;2.57;2.37;;;11.10;99.90;;;;;;5026375;28;20503;-73
2022/12/26 10:31:51;;;;;;;3.03;2.10;;;11.20;99.90;;;;;;5025733;28;20508;-73
2022/12/26 10:34:24;;;;;;;3.33;1.73;;;11.20;99.90;;;;;;5026252;28;21012;-72
2022/12/26 10:36:54;;;;;;;3.47;1.87;;;11.30;99.90;;;;;;5025500;28;20810;-73
2022/12/26 10:39:24;;;;;;;5.03;2.47;;;11.40;99.90;;;;;;5025291;28;20555;-73
2022/12/26 10:41:55;;;;;;;4.13;2.07;;;11.40;99.90;;;;;;5025327;28;20457;-73
2022/12/26 10:44:22;;;;;;;2.33;1.97;;;11.30;99.90;;;;;;5025537;28;20457;-73
2022/12/26 10:47:13;;;;;;;2.20;2.03;;;11.40;99.90;;;;;;5026546;28;20485;-72
2022/12/26 10:49:44;;;;;;;1.97;1.87;;;11.30;99.90;;;;;;5026224;28;20442;-73
2022/12/26 10:52:12;;;;;;;2.30;2.10;;;11.40;99.90;;;;;;5026277;28;20616;-72
2022/12/26 10:54:39;;;;;;;1.70;1.60;;;11.40;99.90;;;;;;5025732;28;20450;-73
2022/12/26 10:57:08;;;;;;;2.90;2.40;;;11.40;99.90;;;;;;5024601;28;20487;-73
2022/12/26 10:59:43;;;;;;;3.00;1.80;;;11.30;99.90;;;;;;5026601;28;20482;-73
2022/12/26 11:02:14;;;;;;;2.50;2.13;;;11.40;99.90;;;;;;5027142;28;20458;-72
2022/12/26 11:04:57;;;;;;;2.20;1.90;;;11.40;99.90;;;;;;5028169;28;20449;-72
2022/12/26 11:07:26;;;;;;;1.67;1.57;;;11.40;99.90;;;;;;5029261;28;20446;-73
2022/12/26 11:09:54;;;;;;;2.90;2.00;;;11.40;99.90;;;;;;5029224;28;20438;-73
2022/12/26 11:12:25;;;;;;;2.60;1.90;;;11.50;99.90;;;;;;5029093;28;20950;-73
2022/12/26 11:14:58;;;;;;;1.70;1.60;;;11.50;99.90;;;;;;5028963;28;20474;-73
2022/12/26 11:17:27;;;;;;;2.40;1.67;;;11.50;99.90;;;;;;5028543;28;20965;-73
2022/12/26 11:22:47;;;;;;;2.10;1.90;;;11.50;99.90;;;;;;5105501;27;20563;-72
2022/12/26 11:25:20;;;;;;;2.10;1.90;;;11.50;99.90;;;;;;5105543;28;20462;-72
2022/12/26 11:27:50;;;;;;;2.57;1.90;;;11.50;99.90;;;;;;5105034;28;20447;-72
2022/12/26 11:30:21;;;;;;;2.20;2.10;;;11.50;99.90;;;;;;5105240;28;20918;-72
2022/12/26 11:32:51;;;;;;;3.87;1.97;;;11.60;99.90;;;;;;5105254;28;20447;-74
2022/12/26 11:35:20;;;;;;;2.03;1.90;;;11.60;99.90;;;;;;5104675;28;20523;-71
2022/12/26 11:37:52;;;;;;;2.27;1.50;;;11.60;99.90;;;;;;5105385;28;20447;-72
2022/12/26 11:40:21;;;;;;;2.13;1.93;;;11.60;99.90;;;;;;5104900;28;20446;-72
2022/12/26 11:42:50;;;;;;;1.57;1.47;;;11.70;99.90;;;;;;5105140;28;20831;-72
2022/12/26 11:45:22;;;;;;;2.13;1.60;;;11.60;99.90;;;;;;5104618;28;20561;-72
2022/12/26 11:47:50;;;;;;;3.40;1.57;;;11.80;99.90;;;;;;5104655;28;20476;-73
2022/12/26 11:50:20;;;;;;;1.60;1.50;;;11.70;99.90;;;;;;5104304;28;20462;-72
2022/12/26 11:52:52;;;;;;;1.67;1.57;;;11.70;99.90;;;;;;5105116;28;20442;-71
2022/12/26 11:55:32;;;;;;;2.40;2.10;;;11.70;99.90;;;;;;5104547;28;20466;-73
2022/12/26 11:58:05;;;;;;;1.87;1.70;;;11.70;99.90;;;;;;5104060;28;20453;-72
2022/12/26 12:00:32;;;;;;;2.73;1.50;;;11.70;99.90;;;;;;5104647;28;20533;-73
2022/12/26 12:02:59;;;;;;;2.23;1.40;;;11.70;99.90;;;;;;5104957;28;20504;-72
2022/12/26 12:05:38;;;;;;;2.67;1.70;;;11.70;99.90;;;;;;5104267;28;20500;-73
2022/12/26 12:08:27;;;;;;;2.40;1.30;;;11.70;99.90;;;;;;5104246;28;20497;-72
2022/12/26 12:11:10;;;;;;;3.90;1.67;;;11.60;99.90;;;;;;5103619;28;20474;-72
2022/12/26 12:13:50;;;;;;;1.60;1.50;;;11.60;99.90;;;;;;5104192;28;20827;-72
2022/12/26 12:16:31;;;;;;;1.83;1.50;;;11.60;99.90;;;;;;5104184;28;21054;-73
2022/12/26 12:19:12;;;;;;;2.97;1.70;;;11.60;99.90;;;;;;5102960;28;20434;-72
2022/12/26 12:21:44;;;;;;;1.73;1.60;;;11.60;99.90;;;;;;5103890;28;20527;-72
2022/12/26 12:24:36;;;;;;;5.23;2.10;;;11.60;99.90;;;;;;5103522;28;20452;-72
2022/12/26 12:27:13;;;;;;;2.33;1.47;;;11.60;99.90;;;;;;5103662;28;20445;-72
2022/12/26 12:29:57;;;;;;;3.20;1.50;;;11.50;99.90;;;;;;5104359;28;20450;-72
2022/12/26 12:32:31;;;;;;;2.37;1.87;;;11.50;99.90;;;;;;5100169;28;20513;-72
2022/12/26 12:35:18;;;;;;;3.47;1.60;;;11.50;99.90;;;;;;5090552;28;20470;-72
2022/12/26 12:38:07;;;;;;;2.50;1.73;;;11.50;99.90;;;;;;5090556;28;20450;-72
2022/12/26 12:40:42;;;;;;;3.87;1.70;;;11.40;99.90;;;;;;5090412;28;20435;-72
2022/12/26 12:43:17;;;;;;;2.57;1.80;;;11.40;99.90;;;;;;5090113;28;21375;-72
2022/12/26 12:45:54;;;;;;;1.60;1.50;;;11.40;99.90;;;;;;5089851;28;20466;-72
2022/12/26 12:48:33;;;;;;;2.07;1.90;;;11.40;99.90;;;;;;5089569;28;20950;-72
2022/12/26 12:51:08;;;;;;;3.70;1.93;;;11.40;99.90;;;;;;5090090;28;20443;-73
2022/12/26 12:53:53;;;;;;;1.73;1.63;;;11.40;99.90;;;;;;5089720;28;20446;-73
2022/12/26 12:56:30;;;;;;;3.47;1.90;;;11.30;99.90;;;;;;5089843;28;20994;-72
2022/12/26 12:59:07;;;;;;;2.90;1.80;;;11.30;99.90;;;;;;5090125;28;20450;-73
2022/12/26 13:01:39;;;;;;;3.27;1.70;;;11.30;99.90;;;;;;5090034;28;21036;-73
2022/12/26 13:04:12;;;;;;;2.27;1.50;;;11.40;99.90;;;;;;5089654;28;20768;-73
2022/12/26 13:06:43;;;;;;;1.97;1.77;;;11.40;99.90;;;;;;5088665;28;20917;-73
2022/12/26 13:09:16;;;;;;;2.83;2.30;;;11.40;99.90;;;;;;5089818;28;20463;-73
2022/12/26 13:11:47;;;;;;;5.40;3.80;;;11.40;99.90;;;;;;5090152;28;20447;-73
2022/12/26 13:14:19;;;;;;;3.20;1.93;;;11.40;99.90;;;;;;5089488;28;20447;-71
2022/12/26 13:16:50;;;;;;;2.03;1.80;;;11.40;99.90;;;;;;5088653;28;20489;-72
2022/12/26 13:19:20;;;;;;;4.23;1.70;;;11.40;99.90;;;;;;5089190;28;20520;-72
2022/12/26 13:21:50;;;;;;;1.77;1.50;;;11.30;99.90;;;;;;5089152;28;21075;-72
2022/12/26 13:24:22;;;;;;;3.53;1.70;;;11.30;99.90;;;;;;5089423;28;20989;-72
2022/12/26 13:26:56;;;;;;;4.33;1.57;;;11.30;99.90;;;;;;5089020;28;20463;-71
2022/12/26 13:29:33;;;;;;;2.83;1.97;;;11.30;99.90;;;;;;5086659;28;20971;-72
2022/12/26 13:32:01;;;;;;;1.87;1.60;;;11.20;99.90;;;;;;5088132;28;20447;-71
2022/12/26 13:34:28;;;;;;;2.57;1.63;;;11.10;99.90;;;;;;5088475;28;20467;-72
2022/12/26 13:36:56;;;;;;;2.07;1.63;;;11.10;99.90;;;;;;5089110;28;20501;-71
2022/12/26 13:39:39;;;;;;;3.30;1.67;;;11.10;99.90;;;;;;5088020;28;20459;-71
2022/12/26 13:45:42;;;;;;;4.10;1.73;;;11.00;99.90;;;;;;5087302;28;20471;-72
2022/12/26 13:48:46;;;;;;;2.77;1.63;;;11.00;99.90;;;;;;5071868;28;20883;-72
2022/12/26 13:51:44;;;;;;;3.87;1.90;;;10.90;99.90;;;;;;5086258;28;20466;-72
2022/12/26 13:54:13;;;;;;;1.60;1.50;;;10.90;99.90;;;;;;5085841;28;20455;-72
2022/12/26 13:57:16;;;;;;;2.50;1.60;;;10.80;99.90;;;;;;5085396;28;20905;-71
2022/12/26 14:00:07;;;;;;;2.00;1.80;;;10.90;99.90;;;;;;5085427;28;20446;-71
2022/12/26 14:03:10;;;;;;;2.57;1.50;;;10.90;99.90;;;;;;5083292;28;20502;-71
2022/12/26 14:05:43;;;;;;;3.80;2.03;;;10.90;99.90;;;;;;5080943;28;20563;-71
2022/12/26 14:08:16;;;;;;;7.43;2.40;;;10.80;99.90;;;;;;5082193;28;20451;-71
2022/12/26 14:10:55;;;;;;;4.27;1.60;;;10.80;99.90;;;;;;5082232;28;20447;-72
2022/12/26 14:13:47;;;;;;;3.13;1.50;;;10.80;99.90;;;;;;5083668;28;20455;-71
2022/12/26 14:16:20;;;;;;;6.67;1.33;;;10.70;99.90;;;;;;5084479;28;20522;-71
2022/12/26 14:18:53;;;;;;;1.30;1.20;;;10.70;99.90;;;;;;5081937;28;20955;-71
2022/12/26 14:21:43;;;;;;;1.83;1.50;;;10.80;99.90;;;;;;5082230;28;20479;-72
2022/12/26 14:24:23;;;;;;;1.53;1.40;;;10.80;99.90;;;;;;5084107;28;20478;-71
2022/12/26 14:26:58;;;;;;;1.50;1.33;;;10.80;99.90;;;;;;5083627;28;20467;-71
2022/12/26 14:29:33;;;;;;;2.53;1.67;;;10.80;99.90;;;;;;5083503;28;20451;-71
2022/12/26 14:32:12;;;;;;;1.43;1.33;;;10.80;99.90;;;;;;5076221;28;20465;-71
2022/12/26 14:34:52;;;;;;;2.07;1.53;;;10.80;99.90;;;;;;5083534;28;20458;-72
2022/12/26 14:37:25;;;;;;;2.10;1.80;;;10.80;99.90;;;;;;5082259;28;20454;-71
2022/12/26 14:40:03;;;;;;;2.07;1.50;;;10.70;99.90;;;;;;5083999;28;20952;-72
2022/12/26 14:45:41;;;;;;;1.40;1.30;;;10.70;99.90;;;;;;5076970;28;21309;-72
2022/12/26 14:48:47;;;;;;;1.87;1.17;;;10.70;99.90;;;;;;5075212;28;20971;-73
2022/12/26 14:51:38;;;;;;;2.60;1.30;;;10.60;99.90;;;;;;5083822;28;20463;-73
2022/12/26 14:54:34;;;;;;;1.60;1.43;;;10.60;99.90;;;;;;5085114;28;20556;-73
2022/12/26 14:57:01;;;;;;;1.60;1.47;;;10.60;99.90;;;;;;5085275;28;20457;-73
2022/12/26 14:59:30;;;;;;;2.57;1.60;;;10.50;99.90;;;;;;5085718;28;20451;-73
2022/12/26 15:02:08;;;;;;;2.27;1.50;;;10.50;99.90;;;;;;5085767;28;20487;-73
2022/12/26 15:05:02;;;;;;;2.30;1.50;;;10.40;99.90;;;;;;5085738;28;20459;-73
2022/12/26 15:08:02;;;;;;;4.47;1.70;;;10.40;99.90;;;;;;5085286;28;20955;-73
2022/12/26 15:10:54;;;;;;;2.07;1.97;;;10.30;99.90;;;;;;5086622;28;20505;-73
2022/12/26 15:13:48;;;;;;;2.57;1.57;;;10.30;99.90;;;;;;5086936;28;20456;-73
2022/12/26 15:16:44;;;;;;;1.60;1.50;;;10.20;99.90;;;;;;5086724;28;20475;-73
2022/12/26 15:19:54;;;;;;;1.60;1.50;;;10.20;99.90;;;;;;5086119;28;20451;-73
2022/12/26 15:22:40;;;;;;;1.50;1.40;;;10.20;99.90;;;;;;5085606;28;20483;-73
2022/12/26 15:25:32;;;;;;;2.97;1.80;;;10.30;99.90;;;;;;5087065;28;20486;-72
2022/12/26 15:28:25;;;;;;;1.77;1.40;;;10.20;99.90;;;;;;5086510;28;20477;-72